sensor_id;sensor_type;location;lat;lon;timestamp;P1;durP1;ratioP1;P2;durP2;ratioP2
34924;SDS011;21130;51.728;8.748;2023-02-19T00:01:40;28.25;;;19.27;;
34924;SDS011;21130;51.728;8.748;2023-02-19T00:04:09;34.47;;;21.90;;
34924;SDS011;21130;51.728;8.748;2023-02-19T00:06:40;35.92;;;21.55;;
34924;SDS011;21130;51.728;8.748;2023-02-19T00:09:08;33.17;;;21.67;;
34924;SDS011;21130;51.728;8.748;2023-02-19T00:11:35;33.70;;;22.13;;
34924;SDS011;21130;51.728;8.748;2023-02-19T00:14:03;35.38;;;22.70;;
34924;SDS011;21130;51.728;8.748;2023-02-19T00:16:31;33.85;;;22.10;;
34924;SDS011;21130;51.728;8.748;2023-02-19T00:18:59;36.13;;;22.73;;
34924;SDS011;21130;51.728;8.748;2023-02-19T00:21:26;35.85;;;23.15;;
34924;SDS011;21130;51.728;8.748;2023-02-19T00:23:55;33.83;;;22.92;;
34924;SDS011;21130;51.728;8.748;2023-02-19T00:26:23;34.83;;;21.92;;
34924;SDS011;21130;51.728;8.748;2023-02-19T00:28:50;31.00;;;21.80;;
34924;SDS011;21130;51.728;8.748;2023-02-19T00:31:19;30.88;;;22.42;;
34924;SDS011;21130;51.728;8.748;2023-02-19T00:33:47;33.50;;;21.45;;
34924;SDS011;21130;51.728;8.748;2023-02-19T00:36:16;34.50;;;21.40;;
34924;SDS011;21130;51.728;8.748;2023-02-19T00:38:43;32.50;;;22.05;;
34924;SDS011;21130;51.728;8.748;2023-02-19T00:41:11;32.17;;;21.13;;
34924;SDS011;21130;51.728;8.748;2023-02-19T00:43:45;32.47;;;21.65;;
34924;SDS011;21130;51.728;8.748;2023-02-19T00:46:14;29.92;;;21.23;;
34924;SDS011;21130;51.728;8.748;2023-02-19T00:48:41;30.30;;;21.25;;
34924;SDS011;21130;51.728;8.748;2023-02-19T00:51:07;30.38;;;21.42;;
34924;SDS011;21130;51.728;8.748;2023-02-19T00:53:34;28.67;;;20.05;;
34924;SDS011;21130;51.728;8.748;2023-02-19T00:56:00;29.90;;;20.58;;
34924;SDS011;21130;51.728;8.748;2023-02-19T00:58:28;26.92;;;20.35;;
34924;SDS011;21130;51.728;8.748;2023-02-19T01:00:55;27.25;;;19.38;;
34924;SDS011;21130;51.728;8.748;2023-02-19T01:03:22;28.85;;;20.33;;
34924;SDS011;21130;51.728;8.748;2023-02-19T01:05:48;27.65;;;20.38;;
34924;SDS011;21130;51.728;8.748;2023-02-19T01:08:15;28.05;;;20.13;;
34924;SDS011;21130;51.728;8.748;2023-02-19T01:10:42;25.25;;;18.92;;
34924;SDS011;21130;51.728;8.748;2023-02-19T01:13:09;26.27;;;19.20;;
34924;SDS011;21130;51.728;8.748;2023-02-19T01:15:37;26.42;;;20.08;;
34924;SDS011;21130;51.728;8.748;2023-02-19T01:18:04;25.25;;;19.73;;
34924;SDS011;21130;51.728;8.748;2023-02-19T01:23:37;26.95;;;19.38;;
34924;SDS011;21130;51.728;8.748;2023-02-19T01:26:04;25.85;;;18.45;;
34924;SDS011;21130;51.728;8.748;2023-02-19T01:28:31;25.52;;;19.70;;
34924;SDS011;21130;51.728;8.748;2023-02-19T01:31:00;25.90;;;19.73;;
34924;SDS011;21130;51.728;8.748;2023-02-19T01:33:27;26.70;;;19.60;;
34924;SDS011;21130;51.728;8.748;2023-02-19T01:35:54;24.63;;;19.42;;
34924;SDS011;21130;51.728;8.748;2023-02-19T01:38:20;31.25;;;21.88;;
34924;SDS011;21130;51.728;8.748;2023-02-19T01:40:53;29.08;;;21.55;;
34924;SDS011;21130;51.728;8.748;2023-02-19T01:43:20;31.10;;;23.08;;
34924;SDS011;21130;51.728;8.748;2023-02-19T01:45:47;33.13;;;26.05;;
34924;SDS011;21130;51.728;8.748;2023-02-19T01:48:15;35.65;;;26.17;;
34924;SDS011;21130;51.728;8.748;2023-02-19T01:50:46;37.17;;;27.27;;
34924;SDS011;21130;51.728;8.748;2023-02-19T01:53:17;38.80;;;29.23;;
34924;SDS011;21130;51.728;8.748;2023-02-19T01:55:47;40.67;;;30.50;;
34924;SDS011;21130;51.728;8.748;2023-02-19T01:58:14;45.33;;;32.22;;
34924;SDS011;21130;51.728;8.748;2023-02-19T02:00:41;47.75;;;32.17;;
34924;SDS011;21130;51.728;8.748;2023-02-19T02:03:08;45.53;;;30.83;;
34924;SDS011;21130;51.728;8.748;2023-02-19T02:05:39;49.42;;;34.15;;
34924;SDS011;21130;51.728;8.748;2023-02-19T02:08:11;48.95;;;34.83;;
34924;SDS011;21130;51.728;8.748;2023-02-19T02:10:57;54.70;;;36.33;;
34924;SDS011;21130;51.728;8.748;2023-02-19T02:13:23;52.88;;;38.58;;
34924;SDS011;21130;51.728;8.748;2023-02-19T02:15:51;58.83;;;39.40;;
34924;SDS011;21130;51.728;8.748;2023-02-19T02:18:27;60.58;;;40.05;;
34924;SDS011;21130;51.728;8.748;2023-02-19T02:21:10;59.08;;;38.35;;
34924;SDS011;21130;51.728;8.748;2023-02-19T02:23:59;60.70;;;39.42;;
34924;SDS011;21130;51.728;8.748;2023-02-19T02:26:41;60.05;;;39.75;;
34924;SDS011;21130;51.728;8.748;2023-02-19T02:32:16;50.28;;;34.67;;
34924;SDS011;21130;51.728;8.748;2023-02-19T02:34:47;51.85;;;36.40;;
34924;SDS011;21130;51.728;8.748;2023-02-19T02:37:18;50.97;;;36.38;;
34924;SDS011;21130;51.728;8.748;2023-02-19T02:39:45;49.08;;;35.72;;
34924;SDS011;21130;51.728;8.748;2023-02-19T02:42:12;53.63;;;37.17;;
34924;SDS011;21130;51.728;8.748;2023-02-19T02:45:14;55.00;;;37.78;;
34924;SDS011;21130;51.728;8.748;2023-02-19T02:48:01;61.00;;;39.33;;
34924;SDS011;21130;51.728;8.748;2023-02-19T02:50:35;64.88;;;41.67;;
34924;SDS011;21130;51.728;8.748;2023-02-19T02:53:07;63.55;;;42.35;;
34924;SDS011;21130;51.728;8.748;2023-02-19T02:55:54;67.90;;;43.55;;
34924;SDS011;21130;51.728;8.748;2023-02-19T02:58:21;69.65;;;43.60;;
34924;SDS011;21130;51.728;8.748;2023-02-19T03:00:53;65.95;;;42.35;;
34924;SDS011;21130;51.728;8.748;2023-02-19T03:03:42;62.25;;;40.28;;
34924;SDS011;21130;51.728;8.748;2023-02-19T03:06:12;65.68;;;42.03;;
34924;SDS011;21130;51.728;8.748;2023-02-19T03:08:43;62.13;;;39.90;;
34924;SDS011;21130;51.728;8.748;2023-02-19T03:11:14;62.00;;;39.35;;
34924;SDS011;21130;51.728;8.748;2023-02-19T03:14:00;59.20;;;38.85;;
34924;SDS011;21130;51.728;8.748;2023-02-19T03:16:49;61.33;;;38.78;;
34924;SDS011;21130;51.728;8.748;2023-02-19T03:19:41;54.97;;;36.42;;
34924;SDS011;21130;51.728;8.748;2023-02-19T03:22:12;55.70;;;34.85;;
34924;SDS011;21130;51.728;8.748;2023-02-19T03:24:44;54.22;;;35.45;;
34924;SDS011;21130;51.728;8.748;2023-02-19T03:27:35;48.55;;;32.35;;
34924;SDS011;21130;51.728;8.748;2023-02-19T03:30:06;47.65;;;30.92;;
34924;SDS011;21130;51.728;8.748;2023-02-19T03:32:37;45.05;;;30.50;;
34924;SDS011;21130;51.728;8.748;2023-02-19T03:35:08;46.58;;;29.23;;
34924;SDS011;21130;51.728;8.748;2023-02-19T03:37:40;40.33;;;28.33;;
34924;SDS011;21130;51.728;8.748;2023-02-19T03:40:09;41.00;;;27.42;;
34924;SDS011;21130;51.728;8.748;2023-02-19T03:42:38;43.08;;;25.27;;
34924;SDS011;21130;51.728;8.748;2023-02-19T03:45:22;39.10;;;25.25;;
34924;SDS011;21130;51.728;8.748;2023-02-19T03:47:59;36.55;;;24.15;;
34924;SDS011;21130;51.728;8.748;2023-02-19T03:50:35;35.60;;;23.38;;
34924;SDS011;21130;51.728;8.748;2023-02-19T03:53:09;35.75;;;24.05;;
34924;SDS011;21130;51.728;8.748;2023-02-19T03:55:44;33.88;;;23.30;;
34924;SDS011;21130;51.728;8.748;2023-02-19T03:58:21;32.53;;;22.05;;
34924;SDS011;21130;51.728;8.748;2023-02-19T04:00:54;34.63;;;22.30;;
34924;SDS011;21130;51.728;8.748;2023-02-19T04:03:27;33.40;;;22.02;;
34924;SDS011;21130;51.728;8.748;2023-02-19T04:05:59;36.72;;;22.35;;
34924;SDS011;21130;51.728;8.748;2023-02-19T04:08:28;35.45;;;22.83;;
34924;SDS011;21130;51.728;8.748;2023-02-19T04:10:56;31.88;;;20.77;;
34924;SDS011;21130;51.728;8.748;2023-02-19T04:13:25;27.42;;;18.33;;
34924;SDS011;21130;51.728;8.748;2023-02-19T04:15:54;22.35;;;16.73;;
34924;SDS011;21130;51.728;8.748;2023-02-19T04:18:27;26.13;;;17.73;;
34924;SDS011;21130;51.728;8.748;2023-02-19T04:20:58;21.35;;;15.75;;
34924;SDS011;21130;51.728;8.748;2023-02-19T04:23:25;23.35;;;16.60;;
34924;SDS011;21130;51.728;8.748;2023-02-19T04:25:56;19.35;;;12.45;;
34924;SDS011;21130;51.728;8.748;2023-02-19T04:28:27;14.95;;;10.32;;
34924;SDS011;21130;51.728;8.748;2023-02-19T04:30:53;12.32;;;9.68;;
34924;SDS011;21130;51.728;8.748;2023-02-19T04:33:20;11.00;;;7.80;;
34924;SDS011;21130;51.728;8.748;2023-02-19T04:35:48;10.38;;;7.50;;
34924;SDS011;21130;51.728;8.748;2023-02-19T04:38:14;10.57;;;7.40;;
34924;SDS011;21130;51.728;8.748;2023-02-19T04:40:40;10.30;;;7.65;;
34924;SDS011;21130;51.728;8.748;2023-02-19T04:43:07;9.80;;;7.25;;
34924;SDS011;21130;51.728;8.748;2023-02-19T04:45:35;9.73;;;7.43;;
34924;SDS011;21130;51.728;8.748;2023-02-19T04:48:02;10.30;;;7.95;;
34924;SDS011;21130;51.728;8.748;2023-02-19T04:50:29;9.90;;;7.70;;
34924;SDS011;21130;51.728;8.748;2023-02-19T04:52:57;10.73;;;8.30;;
34924;SDS011;21130;51.728;8.748;2023-02-19T04:55:23;11.55;;;8.48;;
34924;SDS011;21130;51.728;8.748;2023-02-19T04:57:49;13.18;;;9.70;;
34924;SDS011;21130;51.728;8.748;2023-02-19T05:00:16;15.10;;;10.98;;
34924;SDS011;21130;51.728;8.748;2023-02-19T05:02:42;14.25;;;10.23;;
34924;SDS011;21130;51.728;8.748;2023-02-19T05:05:09;18.00;;;12.20;;
34924;SDS011;21130;51.728;8.748;2023-02-19T05:07:35;20.60;;;14.25;;
34924;SDS011;21130;51.728;8.748;2023-02-19T05:10:03;19.00;;;14.82;;
34924;SDS011;21130;51.728;8.748;2023-02-19T05:12:30;19.67;;;13.52;;
34924;SDS011;21130;51.728;8.748;2023-02-19T05:14:56;21.10;;;13.90;;
34924;SDS011;21130;51.728;8.748;2023-02-19T05:17:23;21.90;;;14.90;;
34924;SDS011;21130;51.728;8.748;2023-02-19T05:19:49;19.25;;;14.20;;
34924;SDS011;21130;51.728;8.748;2023-02-19T05:22:16;20.02;;;14.68;;
34924;SDS011;21130;51.728;8.748;2023-02-19T05:24:43;19.50;;;13.75;;
34924;SDS011;21130;51.728;8.748;2023-02-19T05:27:11;23.38;;;14.50;;
34924;SDS011;21130;51.728;8.748;2023-02-19T05:29:38;21.65;;;14.88;;
34924;SDS011;21130;51.728;8.748;2023-02-19T05:32:04;22.10;;;15.57;;
34924;SDS011;21130;51.728;8.748;2023-02-19T05:34:31;21.63;;;14.77;;
34924;SDS011;21130;51.728;8.748;2023-02-19T05:36:57;21.08;;;13.70;;
34924;SDS011;21130;51.728;8.748;2023-02-19T05:39:24;19.83;;;14.38;;
34924;SDS011;21130;51.728;8.748;2023-02-19T05:41:50;17.17;;;12.95;;
34924;SDS011;21130;51.728;8.748;2023-02-19T05:44:18;16.52;;;12.63;;
34924;SDS011;21130;51.728;8.748;2023-02-19T05:46:44;17.77;;;12.35;;
34924;SDS011;21130;51.728;8.748;2023-02-19T05:49:11;15.43;;;12.43;;
34924;SDS011;21130;51.728;8.748;2023-02-19T05:51:37;17.85;;;11.98;;
34924;SDS011;21130;51.728;8.748;2023-02-19T05:54:03;17.52;;;13.45;;
34924;SDS011;21130;51.728;8.748;2023-02-19T05:56:31;21.65;;;12.95;;
34924;SDS011;21130;51.728;8.748;2023-02-19T05:58:59;17.55;;;12.90;;
34924;SDS011;21130;51.728;8.748;2023-02-19T06:01:29;18.88;;;14.10;;
34924;SDS011;21130;51.728;8.748;2023-02-19T06:03:56;18.10;;;13.13;;
34924;SDS011;21130;51.728;8.748;2023-02-19T06:06:23;18.17;;;13.90;;
34924;SDS011;21130;51.728;8.748;2023-02-19T06:08:51;17.10;;;12.70;;
34924;SDS011;21130;51.728;8.748;2023-02-19T06:11:17;17.75;;;13.20;;
34924;SDS011;21130;51.728;8.748;2023-02-19T06:13:44;18.05;;;12.48;;
34924;SDS011;21130;51.728;8.748;2023-02-19T06:16:11;16.75;;;13.05;;
34924;SDS011;21130;51.728;8.748;2023-02-19T06:18:39;18.05;;;12.82;;
34924;SDS011;21130;51.728;8.748;2023-02-19T06:21:06;17.67;;;12.18;;
34924;SDS011;21130;51.728;8.748;2023-02-19T06:23:34;14.50;;;12.07;;
34924;SDS011;21130;51.728;8.748;2023-02-19T06:26:05;15.13;;;12.57;;
34924;SDS011;21130;51.728;8.748;2023-02-19T06:28:33;17.23;;;12.02;;
34924;SDS011;21130;51.728;8.748;2023-02-19T06:30:59;15.45;;;11.88;;
34924;SDS011;21130;51.728;8.748;2023-02-19T06:33:25;15.23;;;11.73;;
34924;SDS011;21130;51.728;8.748;2023-02-19T06:35:56;15.93;;;11.40;;
34924;SDS011;21130;51.728;8.748;2023-02-19T06:38:24;16.33;;;10.65;;
34924;SDS011;21130;51.728;8.748;2023-02-19T06:40:50;16.65;;;10.73;;
34924;SDS011;21130;51.728;8.748;2023-02-19T06:43:17;15.63;;;10.25;;
34924;SDS011;21130;51.728;8.748;2023-02-19T06:45:43;13.43;;;10.15;;
34924;SDS011;21130;51.728;8.748;2023-02-19T06:48:09;14.38;;;10.07;;
34924;SDS011;21130;51.728;8.748;2023-02-19T06:50:36;14.35;;;10.07;;
34924;SDS011;21130;51.728;8.748;2023-02-19T06:53:04;11.60;;;9.82;;
34924;SDS011;21130;51.728;8.748;2023-02-19T06:55:30;15.05;;;10.63;;
34924;SDS011;21130;51.728;8.748;2023-02-19T06:57:57;13.30;;;10.25;;
34924;SDS011;21130;51.728;8.748;2023-02-19T07:00:23;11.68;;;10.13;;
34924;SDS011;21130;51.728;8.748;2023-02-19T07:02:50;13.23;;;9.57;;
34924;SDS011;21130;51.728;8.748;2023-02-19T07:05:20;12.73;;;9.15;;
34924;SDS011;21130;51.728;8.748;2023-02-19T07:07:47;14.50;;;10.05;;
34924;SDS011;21130;51.728;8.748;2023-02-19T07:10:15;13.13;;;9.40;;
34924;SDS011;21130;51.728;8.748;2023-02-19T07:12:42;13.18;;;10.40;;
34924;SDS011;21130;51.728;8.748;2023-02-19T07:15:08;12.95;;;9.20;;
34924;SDS011;21130;51.728;8.748;2023-02-19T07:17:35;11.82;;;8.98;;
34924;SDS011;21130;51.728;8.748;2023-02-19T07:20:01;13.50;;;10.02;;
34924;SDS011;21130;51.728;8.748;2023-02-19T07:22:28;12.77;;;10.23;;
34924;SDS011;21130;51.728;8.748;2023-02-19T07:24:54;14.63;;;9.52;;
34924;SDS011;21130;51.728;8.748;2023-02-19T07:27:22;12.30;;;10.20;;
34924;SDS011;21130;51.728;8.748;2023-02-19T07:29:48;13.43;;;9.70;;
34924;SDS011;21130;51.728;8.748;2023-02-19T07:32:15;14.38;;;10.30;;
34924;SDS011;21130;51.728;8.748;2023-02-19T07:34:41;13.52;;;10.40;;
34924;SDS011;21130;51.728;8.748;2023-02-19T07:37:08;15.30;;;9.77;;
34924;SDS011;21130;51.728;8.748;2023-02-19T07:39:35;13.18;;;10.50;;
34924;SDS011;21130;51.728;8.748;2023-02-19T07:42:01;13.10;;;10.32;;
34924;SDS011;21130;51.728;8.748;2023-02-19T07:44:29;12.82;;;10.27;;
34924;SDS011;21130;51.728;8.748;2023-02-19T07:46:55;13.07;;;10.00;;
34924;SDS011;21130;51.728;8.748;2023-02-19T07:49:21;15.65;;;10.45;;
34924;SDS011;21130;51.728;8.748;2023-02-19T07:51:48;12.98;;;9.80;;
34924;SDS011;21130;51.728;8.748;2023-02-19T07:54:14;14.60;;;10.43;;
34924;SDS011;21130;51.728;8.748;2023-02-19T07:56:40;10.88;;;9.57;;
34924;SDS011;21130;51.728;8.748;2023-02-19T07:59:07;5.35;;;4.53;;
34924;SDS011;21130;51.728;8.748;2023-02-19T08:01:34;1.30;;;1.20;;
34924;SDS011;21130;51.728;8.748;2023-02-19T08:04:18;1.10;;;1.00;;
34924;SDS011;21130;51.728;8.748;2023-02-19T08:06:45;1.08;;;0.95;;
34924;SDS011;21130;51.728;8.748;2023-02-19T08:09:11;1.08;;;0.98;;
34924;SDS011;21130;51.728;8.748;2023-02-19T08:11:38;1.48;;;0.77;;
34924;SDS011;21130;51.728;8.748;2023-02-19T08:14:23;0.70;;;0.70;;
34924;SDS011;21130;51.728;8.748;2023-02-19T08:16:53;1.30;;;0.70;;
34924;SDS011;21130;51.728;8.748;2023-02-19T08:19:19;0.50;;;0.50;;
34924;SDS011;21130;51.728;8.748;2023-02-19T08:21:46;0.40;;;0.40;;
34924;SDS011;21130;51.728;8.748;2023-02-19T08:24:14;0.50;;;0.50;;
34924;SDS011;21130;51.728;8.748;2023-02-19T08:26:41;0.60;;;0.60;;
34924;SDS011;21130;51.728;8.748;2023-02-19T08:29:07;3.28;;;0.70;;
34924;SDS011;21130;51.728;8.748;2023-02-19T08:31:34;2.83;;;0.75;;
34924;SDS011;21130;51.728;8.748;2023-02-19T08:34:03;0.80;;;0.80;;
34924;SDS011;21130;51.728;8.748;2023-02-19T08:36:30;0.45;;;0.45;;
34924;SDS011;21130;51.728;8.748;2023-02-19T08:38:56;0.50;;;0.50;;
34924;SDS011;21130;51.728;8.748;2023-02-19T08:44:14;0.70;;;0.70;;
34924;SDS011;21130;51.728;8.748;2023-02-19T08:46:40;0.55;;;0.55;;
34924;SDS011;21130;51.728;8.748;2023-02-19T08:49:09;0.63;;;0.60;;
34924;SDS011;21130;51.728;8.748;2023-02-19T08:51:35;0.60;;;0.60;;
34924;SDS011;21130;51.728;8.748;2023-02-19T08:54:02;0.60;;;0.60;;
34924;SDS011;21130;51.728;8.748;2023-02-19T08:56:29;0.60;;;0.60;;
34924;SDS011;21130;51.728;8.748;2023-02-19T08:58:55;2.38;;;1.02;;
34924;SDS011;21130;51.728;8.748;2023-02-19T09:01:21;1.42;;;0.70;;
34924;SDS011;21130;51.728;8.748;2023-02-19T09:03:48;0.65;;;0.65;;
34924;SDS011;21130;51.728;8.748;2023-02-19T09:06:16;0.40;;;0.40;;
34924;SDS011;21130;51.728;8.748;2023-02-19T09:08:44;0.40;;;0.40;;
34924;SDS011;21130;51.728;8.748;2023-02-19T09:11:11;0.40;;;0.40;;
34924;SDS011;21130;51.728;8.748;2023-02-19T09:13:37;0.50;;;0.50;;
34924;SDS011;21130;51.728;8.748;2023-02-19T09:16:04;1.33;;;0.55;;
34924;SDS011;21130;51.728;8.748;2023-02-19T09:18:30;0.60;;;0.60;;
34924;SDS011;21130;51.728;8.748;2023-02-19T09:20:58;0.50;;;0.50;;
34924;SDS011;21130;51.728;8.748;2023-02-19T09:23:27;0.60;;;0.60;;
34924;SDS011;21130;51.728;8.748;2023-02-19T09:25:57;0.70;;;0.70;;
34924;SDS011;21130;51.728;8.748;2023-02-19T09:28:25;1.30;;;1.02;;
34924;SDS011;21130;51.728;8.748;2023-02-19T09:30:51;0.60;;;0.60;;
34924;SDS011;21130;51.728;8.748;2023-02-19T09:33:18;0.75;;;0.73;;
34924;SDS011;21130;51.728;8.748;2023-02-19T09:35:44;1.45;;;0.85;;
34924;SDS011;21130;51.728;8.748;2023-02-19T09:38:11;0.90;;;0.90;;
34924;SDS011;21130;51.728;8.748;2023-02-19T09:40:39;0.80;;;0.80;;
34924;SDS011;21130;51.728;8.748;2023-02-19T09:43:05;0.80;;;0.80;;
34924;SDS011;21130;51.728;8.748;2023-02-19T09:45:33;1.20;;;1.00;;
34924;SDS011;21130;51.728;8.748;2023-02-19T09:48:02;1.10;;;1.05;;
34924;SDS011;21130;51.728;8.748;2023-02-19T09:50:31;1.00;;;1.00;;
34924;SDS011;21130;51.728;8.748;2023-02-19T09:53:01;0.68;;;0.68;;
34924;SDS011;21130;51.728;8.748;2023-02-19T09:55:32;1.13;;;0.85;;
34924;SDS011;21130;51.728;8.748;2023-02-19T09:58:05;2.00;;;0.80;;
34924;SDS011;21130;51.728;8.748;2023-02-19T10:00:39;0.98;;;0.70;;
34924;SDS011;21130;51.728;8.748;2023-02-19T10:03:11;0.57;;;0.57;;
34924;SDS011;21130;51.728;8.748;2023-02-19T10:05:44;0.73;;;0.70;;
34924;SDS011;21130;51.728;8.748;2023-02-19T10:08:11;0.95;;;0.95;;
34924;SDS011;21130;51.728;8.748;2023-02-19T10:10:40;1.20;;;1.10;;
34924;SDS011;21130;51.728;8.748;2023-02-19T10:13:12;0.68;;;0.68;;
34924;SDS011;21130;51.728;8.748;2023-02-19T10:15:45;1.15;;;0.80;;
34924;SDS011;21130;51.728;8.748;2023-02-19T10:18:18;0.73;;;0.73;;
34924;SDS011;21130;51.728;8.748;2023-02-19T10:20:47;0.70;;;0.70;;
34924;SDS011;21130;51.728;8.748;2023-02-19T10:23:15;0.75;;;0.75;;
34924;SDS011;21130;51.728;8.748;2023-02-19T10:25:44;4.90;;;3.47;;
34924;SDS011;21130;51.728;8.748;2023-02-19T10:28:14;1.05;;;1.00;;
34924;SDS011;21130;51.728;8.748;2023-02-19T10:30:43;0.95;;;0.95;;
34924;SDS011;21130;51.728;8.748;2023-02-19T10:33:14;0.80;;;0.80;;
34924;SDS011;21130;51.728;8.748;2023-02-19T10:38:29;0.90;;;0.90;;
34924;SDS011;21130;51.728;8.748;2023-02-19T10:40:59;0.90;;;0.90;;
34924;SDS011;21130;51.728;8.748;2023-02-19T10:43:34;0.80;;;0.80;;
34924;SDS011;21130;51.728;8.748;2023-02-19T10:46:05;0.80;;;0.80;;
34924;SDS011;21130;51.728;8.748;2023-02-19T10:48:39;0.80;;;0.73;;
34924;SDS011;21130;51.728;8.748;2023-02-19T10:51:11;0.80;;;0.80;;
34924;SDS011;21130;51.728;8.748;2023-02-19T10:53:46;1.35;;;0.80;;
34924;SDS011;21130;51.728;8.748;2023-02-19T10:56:14;1.00;;;1.00;;
34924;SDS011;21130;51.728;8.748;2023-02-19T10:58:49;0.90;;;0.90;;
34924;SDS011;21130;51.728;8.748;2023-02-19T11:01:17;2.50;;;1.30;;
34924;SDS011;21130;51.728;8.748;2023-02-19T11:03:45;1.45;;;1.35;;
34924;SDS011;21130;51.728;8.748;2023-02-19T11:06:13;1.30;;;1.20;;
34924;SDS011;21130;51.728;8.748;2023-02-19T11:08:45;1.60;;;1.50;;
34924;SDS011;21130;51.728;8.748;2023-02-19T11:11:21;1.40;;;1.30;;
34924;SDS011;21130;51.728;8.748;2023-02-19T11:13:52;1.50;;;1.40;;
34924;SDS011;21130;51.728;8.748;2023-02-19T11:16:19;1.10;;;1.00;;
34924;SDS011;21130;51.728;8.748;2023-02-19T11:18:51;1.20;;;1.20;;
34924;SDS011;21130;51.728;8.748;2023-02-19T11:21:23;1.33;;;1.00;;
34924;SDS011;21130;51.728;8.748;2023-02-19T11:31:39;1.20;;;1.10;;
34924;SDS011;21130;51.728;8.748;2023-02-19T11:37:07;1.20;;;1.20;;
34924;SDS011;21130;51.728;8.748;2023-02-19T11:39:37;1.20;;;0.98;;
34924;SDS011;21130;51.728;8.748;2023-02-19T11:42:23;1.05;;;1.00;;
34924;SDS011;21130;51.728;8.748;2023-02-19T11:44:58;1.25;;;1.10;;
34924;SDS011;21130;51.728;8.748;2023-02-19T11:48:01;0.90;;;0.90;;
34924;SDS011;21130;51.728;8.748;2023-02-19T11:50:44;0.68;;;0.68;;
34924;SDS011;21130;51.728;8.748;2023-02-19T11:53:19;0.65;;;0.65;;
34924;SDS011;21130;51.728;8.748;2023-02-19T11:55:53;0.52;;;0.52;;
34924;SDS011;21130;51.728;8.748;2023-02-19T11:58:50;0.80;;;0.80;;
34924;SDS011;21130;51.728;8.748;2023-02-19T12:01:26;0.93;;;0.93;;
34924;SDS011;21130;51.728;8.748;2023-02-19T12:04:07;0.90;;;0.68;;
34924;SDS011;21130;51.728;8.748;2023-02-19T12:06:54;0.70;;;0.70;;
34924;SDS011;21130;51.728;8.748;2023-02-19T12:09:34;0.60;;;0.60;;
34924;SDS011;21130;51.728;8.748;2023-02-19T12:12:21;1.30;;;0.70;;
34924;SDS011;21130;51.728;8.748;2023-02-19T12:15:07;1.75;;;0.70;;
34924;SDS011;21130;51.728;8.748;2023-02-19T12:20:46;0.85;;;0.60;;
34924;SDS011;21130;51.728;8.748;2023-02-19T12:23:29;0.82;;;0.70;;
34924;SDS011;21130;51.728;8.748;2023-02-19T12:26:08;0.70;;;0.60;;
34924;SDS011;21130;51.728;8.748;2023-02-19T12:28:52;1.85;;;0.70;;
34924;SDS011;21130;51.728;8.748;2023-02-19T12:34:48;0.65;;;0.50;;
34924;SDS011;21130;51.728;8.748;2023-02-19T12:37:36;0.52;;;0.52;;
34924;SDS011;21130;51.728;8.748;2023-02-19T12:40:18;0.85;;;0.85;;
34924;SDS011;21130;51.728;8.748;2023-02-19T12:43:00;0.75;;;0.70;;
34924;SDS011;21130;51.728;8.748;2023-02-19T12:45:35;0.70;;;0.63;;
34924;SDS011;21130;51.728;8.748;2023-02-19T12:48:08;0.60;;;0.60;;
34924;SDS011;21130;51.728;8.748;2023-02-19T12:50:44;0.82;;;0.70;;
34924;SDS011;21130;51.728;8.748;2023-02-19T12:53:23;0.85;;;0.70;;
34924;SDS011;21130;51.728;8.748;2023-02-19T12:55:58;0.80;;;0.80;;
34924;SDS011;21130;51.728;8.748;2023-02-19T12:58:29;0.80;;;0.80;;
34924;SDS011;21130;51.728;8.748;2023-02-19T13:01:03;0.95;;;0.88;;
34924;SDS011;21130;51.728;8.748;2023-02-19T13:03:33;0.80;;;0.80;;
34924;SDS011;21130;51.728;8.748;2023-02-19T13:06:05;1.20;;;0.80;;
34924;SDS011;21130;51.728;8.748;2023-02-19T13:08:43;0.90;;;0.90;;
34924;SDS011;21130;51.728;8.748;2023-02-19T13:11:13;0.80;;;0.80;;
34924;SDS011;21130;51.728;8.748;2023-02-19T13:13:45;1.67;;;1.00;;
34924;SDS011;21130;51.728;8.748;2023-02-19T13:16:15;1.35;;;1.25;;
34924;SDS011;21130;51.728;8.748;2023-02-19T13:18:44;1.50;;;1.40;;
34924;SDS011;21130;51.728;8.748;2023-02-19T13:21:12;1.40;;;1.30;;
34924;SDS011;21130;51.728;8.748;2023-02-19T13:24:04;1.27;;;1.20;;
34924;SDS011;21130;51.728;8.748;2023-02-19T13:26:44;1.20;;;1.13;;
34924;SDS011;21130;51.728;8.748;2023-02-19T13:29:24;1.10;;;1.10;;
34924;SDS011;21130;51.728;8.748;2023-02-19T13:32:05;1.10;;;1.10;;
34924;SDS011;21130;51.728;8.748;2023-02-19T13:35:10;1.48;;;1.23;;
34924;SDS011;21130;51.728;8.748;2023-02-19T13:37:48;1.85;;;1.20;;
34924;SDS011;21130;51.728;8.748;2023-02-19T13:40:19;1.38;;;1.27;;
34924;SDS011;21130;51.728;8.748;2023-02-19T13:42:53;1.45;;;1.35;;
34924;SDS011;21130;51.728;8.748;2023-02-19T13:45:22;2.00;;;1.20;;
34924;SDS011;21130;51.728;8.748;2023-02-19T13:48:00;1.85;;;1.33;;
34924;SDS011;21130;51.728;8.748;2023-02-19T13:50:38;1.38;;;1.27;;
34924;SDS011;21130;51.728;8.748;2023-02-19T13:56:08;1.42;;;1.33;;
34924;SDS011;21130;51.728;8.748;2023-02-19T13:59:12;1.77;;;1.20;;
34924;SDS011;21130;51.728;8.748;2023-02-19T14:04:48;1.50;;;1.40;;
34924;SDS011;21130;51.728;8.748;2023-02-19T14:07:20;1.45;;;1.35;;
34924;SDS011;21130;51.728;8.748;2023-02-19T14:09:59;1.73;;;1.52;;
34924;SDS011;21130;51.728;8.748;2023-02-19T14:12:31;1.77;;;1.65;;
34924;SDS011;21130;51.728;8.748;2023-02-19T14:18:16;1.73;;;1.50;;
34924;SDS011;21130;51.728;8.748;2023-02-19T14:21:11;1.70;;;1.42;;
34924;SDS011;21130;51.728;8.748;2023-02-19T14:23:41;1.50;;;1.40;;
34924;SDS011;21130;51.728;8.748;2023-02-19T14:26:08;1.88;;;1.40;;
34924;SDS011;21130;51.728;8.748;2023-02-19T14:28:38;1.60;;;1.50;;
34924;SDS011;21130;51.728;8.748;2023-02-19T14:31:10;1.65;;;1.55;;
34924;SDS011;21130;51.728;8.748;2023-02-19T14:33:43;1.40;;;1.40;;
34924;SDS011;21130;51.728;8.748;2023-02-19T14:36:15;1.95;;;1.65;;
34924;SDS011;21130;51.728;8.748;2023-02-19T14:38:46;1.67;;;1.50;;
34924;SDS011;21130;51.728;8.748;2023-02-19T14:41:15;2.00;;;1.80;;
34924;SDS011;21130;51.728;8.748;2023-02-19T14:43:45;2.28;;;2.03;;
34924;SDS011;21130;51.728;8.748;2023-02-19T14:46:15;2.80;;;1.70;;
34924;SDS011;21130;51.728;8.748;2023-02-19T14:48:48;2.55;;;1.92;;
34924;SDS011;21130;51.728;8.748;2023-02-19T14:51:19;2.33;;;1.67;;
34924;SDS011;21130;51.728;8.748;2023-02-19T14:53:52;2.05;;;1.95;;
34924;SDS011;21130;51.728;8.748;2023-02-19T14:56:22;2.42;;;2.20;;
34924;SDS011;21130;51.728;8.748;2023-02-19T14:59:15;2.92;;;2.20;;
34924;SDS011;21130;51.728;8.748;2023-02-19T15:01:52;2.00;;;1.80;;
34924;SDS011;21130;51.728;8.748;2023-02-19T15:04:20;2.03;;;1.92;;
34924;SDS011;21130;51.728;8.748;2023-02-19T15:06:48;1.92;;;1.83;;
34924;SDS011;21130;51.728;8.748;2023-02-19T15:09:18;2.30;;;2.10;;
34924;SDS011;21130;51.728;8.748;2023-02-19T15:11:46;2.03;;;1.88;;
34924;SDS011;21130;51.728;8.748;2023-02-19T15:14:18;2.35;;;2.10;;
34924;SDS011;21130;51.728;8.748;2023-02-19T15:16:47;2.45;;;1.98;;
34924;SDS011;21130;51.728;8.748;2023-02-19T15:19:19;1.83;;;1.73;;
34924;SDS011;21130;51.728;8.748;2023-02-19T15:21:46;2.88;;;1.55;;
34924;SDS011;21130;51.728;8.748;2023-02-19T15:24:14;2.20;;;1.92;;
34924;SDS011;21130;51.728;8.748;2023-02-19T15:26:46;2.40;;;2.20;;
34924;SDS011;21130;51.728;8.748;2023-02-19T15:29:17;2.20;;;2.00;;
34924;SDS011;21130;51.728;8.748;2023-02-19T15:31:44;2.65;;;2.40;;
34924;SDS011;21130;51.728;8.748;2023-02-19T15:34:16;2.20;;;2.08;;
34924;SDS011;21130;51.728;8.748;2023-02-19T15:36:44;2.80;;;2.60;;